sensor_id;sensor_type;location;lat;lon;timestamp;pressure;altitude;pressure_sealevel;temperature;humidity
76166;BME280;65085;46.718;20.136;2022-12-18T00:02:52;102173.00;;;0.46;79.11
76166;BME280;65085;46.718;20.136;2022-12-18T00:05:56;102181.53;;;0.38;79.13
76166;BME280;65085;46.718;20.136;2022-12-18T00:09:00;102181.56;;;0.53;77.23
76166;BME280;65085;46.718;20.136;2022-12-18T00:12:04;102184.25;;;0.53;77.98
76166;BME280;65085;46.718;20.136;2022-12-18T00:15:17;102191.44;;;0.53;78.47
76166;BME280;65085;46.718;20.136;2022-12-18T00:18:19;102204.28;;;0.51;77.85
76166;BME280;65085;46.718;20.136;2022-12-18T00:21:23;102204.53;;;0.59;77.43
76166;BME280;65085;46.718;20.136;2022-12-18T00:24:26;102221.94;;;0.67;78.06
76166;BME280;65085;46.718;20.136;2022-12-18T00:27:28;102222.47;;;0.69;77.61
76166;BME280;65085;46.718;20.136;2022-12-18T00:30:31;102223.81;;;0.66;78.11
76166;BME280;65085;46.718;20.136;2022-12-18T00:33:34;102227.03;;;0.63;77.87
76166;BME280;65085;46.718;20.136;2022-12-18T00:36:40;102239.31;;;0.59;79.41
76166;BME280;65085;46.718;20.136;2022-12-18T00:39:43;102239.88;;;0.71;78.99
76166;BME280;65085;46.718;20.136;2022-12-18T00:42:46;102235.06;;;0.73;77.90
76166;BME280;65085;46.718;20.136;2022-12-18T00:46:00;102243.38;;;0.82;77.22
76166;BME280;65085;46.718;20.136;2022-12-18T00:49:03;102249.22;;;0.79;77.47
76166;BME280;65085;46.718;20.136;2022-12-18T00:52:07;102255.09;;;0.61;79.23
76166;BME280;65085;46.718;20.136;2022-12-18T00:55:10;102259.66;;;0.65;79.60
76166;BME280;65085;46.718;20.136;2022-12-18T00:58:15;102267.16;;;0.68;78.79
76166;BME280;65085;46.718;20.136;2022-12-18T01:01:18;102274.63;;;0.71;78.69
76166;BME280;65085;46.718;20.136;2022-12-18T01:04:21;102272.78;;;0.77;77.82
76166;BME280;65085;46.718;20.136;2022-12-18T01:07:25;102290.72;;;0.86;77.98
76166;BME280;65085;46.718;20.136;2022-12-18T01:10:27;102293.66;;;0.80;78.64
76166;BME280;65085;46.718;20.136;2022-12-18T01:13:32;102302.47;;;0.90;78.49
76166;BME280;65085;46.718;20.136;2022-12-18T01:16:34;102301.41;;;0.81;78.04
76166;BME280;65085;46.718;20.136;2022-12-18T01:19:39;102302.22;;;0.87;78.87
76166;BME280;65085;46.718;20.136;2022-12-18T01:22:46;102303.81;;;0.83;79.17
76166;BME280;65085;46.718;20.136;2022-12-18T01:25:48;102303.84;;;0.88;79.42
76166;BME280;65085;46.718;20.136;2022-12-18T01:28:51;102307.56;;;0.87;79.49
76166;BME280;65085;46.718;20.136;2022-12-18T01:31:57;102303.03;;;0.92;79.30
76166;BME280;65085;46.718;20.136;2022-12-18T01:35:00;102298.22;;;1.04;77.81
76166;BME280;65085;46.718;20.136;2022-12-18T01:38:04;102292.84;;;0.99;78.48
76166;BME280;65085;46.718;20.136;2022-12-18T01:41:08;102292.59;;;0.86;78.90
76166;BME280;65085;46.718;20.136;2022-12-18T01:47:48;102301.41;;;0.86;78.69
76166;BME280;65085;46.718;20.136;2022-12-18T01:50:51;102306.75;;;0.91;78.80
76166;BME280;65085;46.718;20.136;2022-12-18T01:53:56;102310.25;;;1.02;78.06
76166;BME280;65085;46.718;20.136;2022-12-18T01:56:59;102318.53;;;0.90;79.33
76166;BME280;65085;46.718;20.136;2022-12-18T02:00:06;102326.59;;;1.00;79.29
76166;BME280;65085;46.718;20.136;2022-12-18T02:03:15;102326.56;;;0.90;79.51
76166;BME280;65085;46.718;20.136;2022-12-18T02:06:23;102326.59;;;0.95;79.81
76166;BME280;65085;46.718;20.136;2022-12-18T02:09:33;102336.50;;;1.10;79.62
76166;BME280;65085;46.718;20.136;2022-12-18T02:12:43;102349.34;;;1.08;78.51
76166;BME280;65085;46.718;20.136;2022-12-18T02:15:54;102343.69;;;0.99;79.13
76166;BME280;65085;46.718;20.136;2022-12-18T02:19:03;102349.88;;;1.05;78.89
76166;BME280;65085;46.718;20.136;2022-12-18T02:22:18;102346.41;;;1.14;78.43
76166;BME280;65085;46.718;20.136;2022-12-18T02:25:37;102344.25;;;1.06;79.07
76166;BME280;65085;46.718;20.136;2022-12-18T02:28:46;102346.66;;;1.03;78.83
76166;BME280;65085;46.718;20.136;2022-12-18T02:31:52;102355.47;;;0.98;78.91
76166;BME280;65085;46.718;20.136;2022-12-18T02:34:57;102346.91;;;0.96;79.57
76166;BME280;65085;46.718;20.136;2022-12-18T02:38:04;102363.50;;;0.93;80.42
76166;BME280;65085;46.718;20.136;2022-12-18T02:41:10;102371.47;;;0.73;81.39
76166;BME280;65085;46.718;20.136;2022-12-18T02:44:15;102369.88;;;0.82;80.61
76166;BME280;65085;46.718;20.136;2022-12-18T02:47:20;102367.75;;;0.79;81.13
76166;BME280;65085;46.718;20.136;2022-12-18T02:50:30;102379.25;;;0.80;80.80
76166;BME280;65085;46.718;20.136;2022-12-18T02:53:38;102374.84;;;0.49;81.58
76166;BME280;65085;46.718;20.136;2022-12-18T02:56:47;102386.53;;;0.33;82.26
76166;BME280;65085;46.718;20.136;2022-12-18T03:00:00;102394.41;;;0.13;82.79
76166;BME280;65085;46.718;20.136;2022-12-18T03:03:09;102394.31;;;-0.02;83.34
76166;BME280;65085;46.718;20.136;2022-12-18T03:06:20;102391.88;;;-0.08;82.88
76166;BME280;65085;46.718;20.136;2022-12-18T03:09:29;102400.00;;;-0.30;83.82
76166;BME280;65085;46.718;20.136;2022-12-18T03:12:35;102403.59;;;-0.46;84.19
76166;BME280;65085;46.718;20.136;2022-12-18T03:15:44;102403.06;;;-0.48;85.16
76166;BME280;65085;46.718;20.136;2022-12-18T03:18:51;102416.19;;;-0.68;84.89
76166;BME280;65085;46.718;20.136;2022-12-18T03:21:57;102411.84;;;-0.74;85.72
76166;BME280;65085;46.718;20.136;2022-12-18T03:25:03;102419.22;;;-0.86;87.19
76166;BME280;65085;46.718;20.136;2022-12-18T03:28:12;102412.75;;;-0.90;86.37
76166;BME280;65085;46.718;20.136;2022-12-18T03:31:19;102419.13;;;-0.96;86.99
76166;BME280;65085;46.718;20.136;2022-12-18T03:34:29;102426.50;;;-1.03;87.27
76166;BME280;65085;46.718;20.136;2022-12-18T03:37:36;102427.41;;;-1.14;87.07
76166;BME280;65085;46.718;20.136;2022-12-18T03:40:53;102429.66;;;-1.27;87.64
76166;BME280;65085;46.718;20.136;2022-12-18T03:44:03;102427.81;;;-1.27;88.29
76166;BME280;65085;46.718;20.136;2022-12-18T03:47:14;102445.41;;;-1.26;88.20
76166;BME280;65085;46.718;20.136;2022-12-18T03:50:22;102441.56;;;-1.35;88.02
76166;BME280;65085;46.718;20.136;2022-12-18T03:53:36;102445.31;;;-1.36;88.21
76166;BME280;65085;46.718;20.136;2022-12-18T03:56:46;102446.31;;;-1.37;87.91
76166;BME280;65085;46.718;20.136;2022-12-18T03:59:55;102466.13;;;-1.33;87.90
76166;BME280;65085;46.718;20.136;2022-12-18T04:03:04;102459.84;;;-1.22;87.63
76166;BME280;65085;46.718;20.136;2022-12-18T04:06:16;102466.25;;;-1.23;87.30
76166;BME280;65085;46.718;20.136;2022-12-18T04:09:20;102475.16;;;-1.34;88.03
76166;BME280;65085;46.718;20.136;2022-12-18T04:12:24;102470.50;;;-1.43;88.58
76166;BME280;65085;46.718;20.136;2022-12-18T04:15:27;102478.63;;;-1.33;88.22
76166;BME280;65085;46.718;20.136;2022-12-18T04:18:32;102480.50;;;-1.34;88.24
76166;BME280;65085;46.718;20.136;2022-12-18T04:21:36;102480.97;;;-1.37;88.46
76166;BME280;65085;46.718;20.136;2022-12-18T04:24:39;102482.13;;;-1.33;87.94
76166;BME280;65085;46.718;20.136;2022-12-18T04:27:49;102480.50;;;-1.34;88.31
76166;BME280;65085;46.718;20.136;2022-12-18T04:30:52;102489.16;;;-1.43;88.50
76166;BME280;65085;46.718;20.136;2022-12-18T04:33:58;102493.06;;;-1.51;88.35
76166;BME280;65085;46.718;20.136;2022-12-18T04:37:01;102498.94;;;-1.65;89.10
76166;BME280;65085;46.718;20.136;2022-12-18T04:40:05;102497.66;;;-1.63;88.90
76166;BME280;65085;46.718;20.136;2022-12-18T04:43:14;102496.06;;;-1.64;89.12
76166;BME280;65085;46.718;20.136;2022-12-18T04:46:17;102505.78;;;-1.53;88.17
76166;BME280;65085;46.718;20.136;2022-12-18T04:49:21;102503.09;;;-1.58;88.16
76166;BME280;65085;46.718;20.136;2022-12-18T04:52:24;102502.44;;;-1.65;88.61
76166;BME280;65085;46.718;20.136;2022-12-18T04:55:26;102515.19;;;-1.67;88.66
76166;BME280;65085;46.718;20.136;2022-12-18T04:58:29;102532.78;;;-1.66;89.20
76166;BME280;65085;46.718;20.136;2022-12-18T05:01:33;102541.25;;;-1.69;89.29
76166;BME280;65085;46.718;20.136;2022-12-18T05:04:39;102544.50;;;-1.83;89.12
76166;BME280;65085;46.718;20.136;2022-12-18T05:07:41;102558.13;;;-1.80;89.06
76166;BME280;65085;46.718;20.136;2022-12-18T05:10:44;102568.63;;;-1.90;89.10
76166;BME280;65085;46.718;20.136;2022-12-18T05:13:47;102570.06;;;-1.99;89.08
76166;BME280;65085;46.718;20.136;2022-12-18T05:16:50;102575.34;;;-2.15;90.10
76166;BME280;65085;46.718;20.136;2022-12-18T05:19:54;102572.28;;;-2.24;90.05
76166;BME280;65085;46.718;20.136;2022-12-18T05:22:56;102575.50;;;-2.22;89.74
76166;BME280;65085;46.718;20.136;2022-12-18T05:26:00;102577.44;;;-2.17;89.20
76166;BME280;65085;46.718;20.136;2022-12-18T05:29:03;102583.00;;;-2.19;88.96
76166;BME280;65085;46.718;20.136;2022-12-18T05:32:05;102589.28;;;-2.25;89.19
76166;BME280;65085;46.718;20.136;2022-12-18T05:35:10;102582.34;;;-2.26;89.04
76166;BME280;65085;46.718;20.136;2022-12-18T05:38:13;102589.28;;;-2.25;89.14
76166;BME280;65085;46.718;20.136;2022-12-18T05:41:16;102587.75;;;-2.21;89.21
76166;BME280;65085;46.718;20.136;2022-12-18T05:44:18;102602.00;;;-2.27;89.68
76166;BME280;65085;46.718;20.136;2022-12-18T05:47:21;102603.66;;;-2.37;89.64
76166;BME280;65085;46.718;20.136;2022-12-18T05:50:25;102605.28;;;-2.36;89.41
76166;BME280;65085;46.718;20.136;2022-12-18T05:53:27;102607.16;;;-2.37;89.25
76166;BME280;65085;46.718;20.136;2022-12-18T05:56:30;102608.75;;;-2.36;89.44
76166;BME280;65085;46.718;20.136;2022-12-18T05:59:33;102610.28;;;-2.40;89.91
76166;BME280;65085;46.718;20.136;2022-12-18T06:02:36;102618.88;;;-2.49;90.22
76166;BME280;65085;46.718;20.136;2022-12-18T06:05:41;102620.81;;;-2.45;89.94
76166;BME280;65085;46.718;20.136;2022-12-18T06:08:44;102619.44;;;-2.47;90.23
76166;BME280;65085;46.718;20.136;2022-12-18T06:11:48;102627.91;;;-2.50;90.12
76166;BME280;65085;46.718;20.136;2022-12-18T06:14:50;102624.19;;;-2.49;89.84
76166;BME280;65085;46.718;20.136;2022-12-18T06:17:53;102625.25;;;-2.50;89.84
76166;BME280;65085;46.718;20.136;2022-12-18T06:20:58;102637.13;;;-2.41;89.66
76166;BME280;65085;46.718;20.136;2022-12-18T06:24:01;102648.31;;;-2.28;89.75
76166;BME280;65085;46.718;20.136;2022-12-18T06:27:03;102654.91;;;-2.30;89.72
76166;BME280;65085;46.718;20.136;2022-12-18T06:30:07;102656.06;;;-2.26;89.22
76166;BME280;65085;46.718;20.136;2022-12-18T06:33:10;102652.72;;;-2.33;89.06
76166;BME280;65085;46.718;20.136;2022-12-18T06:36:14;102658.13;;;-2.28;89.23
76166;BME280;65085;46.718;20.136;2022-12-18T06:39:17;102666.13;;;-2.28;89.51
76166;BME280;65085;46.718;20.136;2022-12-18T06:42:19;102664.28;;;-2.28;89.56
76166;BME280;65085;46.718;20.136;2022-12-18T06:45:22;102671.06;;;-2.20;89.47
76166;BME280;65085;46.718;20.136;2022-12-18T06:48:24;102679.03;;;-2.09;89.09
76166;BME280;65085;46.718;20.136;2022-12-18T06:51:29;102688.06;;;-2.10;88.93
76166;BME280;65085;46.718;20.136;2022-12-18T06:54:31;102683.19;;;-2.01;89.31
76166;BME280;65085;46.718;20.136;2022-12-18T06:57:34;102690.34;;;-2.02;89.37
76166;BME280;65085;46.718;20.136;2022-12-18T07:00:36;102699.72;;;-1.99;89.33
76166;BME280;65085;46.718;20.136;2022-12-18T07:03:40;102708.63;;;-1.94;89.26
76166;BME280;65085;46.718;20.136;2022-12-18T07:06:45;102711.13;;;-1.76;89.35
76166;BME280;65085;46.718;20.136;2022-12-18T07:09:49;102713.91;;;-1.54;88.49
76166;BME280;65085;46.718;20.136;2022-12-18T07:12:52;102727.75;;;-1.41;88.53
76166;BME280;65085;46.718;20.136;2022-12-18T07:15:54;102730.13;;;-1.28;87.97
76166;BME280;65085;46.718;20.136;2022-12-18T07:18:57;102738.78;;;-1.04;87.42
76166;BME280;65085;46.718;20.136;2022-12-18T07:22:01;102728.19;;;-0.83;86.99
76166;BME280;65085;46.718;20.136;2022-12-18T07:25:05;102731.72;;;-0.61;86.39
76166;BME280;65085;46.718;20.136;2022-12-18T07:28:08;102736.44;;;-0.08;84.26
76166;BME280;65085;46.718;20.136;2022-12-18T07:31:20;102744.16;;;0.09;83.40
76166;BME280;65085;46.718;20.136;2022-12-18T07:34:23;102742.81;;;0.33;82.92
76166;BME280;65085;46.718;20.136;2022-12-18T07:37:28;102757.59;;;0.67;81.93
76166;BME280;65085;46.718;20.136;2022-12-18T07:40:31;102763.78;;;0.94;81.51
76166;BME280;65085;46.718;20.136;2022-12-18T07:43:34;102765.00;;;1.13;80.35
76166;BME280;65085;46.718;20.136;2022-12-18T07:46:38;102769.88;;;1.21;78.63
76166;BME280;65085;46.718;20.136;2022-12-18T07:49:41;102777.78;;;1.43;79.00
76166;BME280;65085;46.718;20.136;2022-12-18T07:52:45;102767.84;;;1.38;78.52
76166;BME280;65085;46.718;20.136;2022-12-18T07:55:48;102776.75;;;1.85;77.15
76166;BME280;65085;46.718;20.136;2022-12-18T07:59:10;102792.22;;;2.30;74.49
76166;BME280;65085;46.718;20.136;2022-12-18T08:02:13;102793.41;;;2.69;73.63
76166;BME280;65085;46.718;20.136;2022-12-18T08:05:16;102795.34;;;2.88;72.66
76166;BME280;65085;46.718;20.136;2022-12-18T08:08:20;102801.22;;;2.70;72.53
76166;BME280;65085;46.718;20.136;2022-12-18T08:11:25;102803.56;;;2.42;73.25
76166;BME280;65085;46.718;20.136;2022-12-18T08:14:28;102804.06;;;2.34;74.45
76166;BME280;65085;46.718;20.136;2022-12-18T08:17:30;102809.81;;;2.72;73.15
76166;BME280;65085;46.718;20.136;2022-12-18T08:20:33;102822.22;;;3.03;74.20
76166;BME280;65085;46.718;20.136;2022-12-18T08:23:37;102826.72;;;2.78;72.83
76166;BME280;65085;46.718;20.136;2022-12-18T08:26:44;102829.19;;;2.94;71.96
76166;BME280;65085;46.718;20.136;2022-12-18T08:30:08;102829.75;;;3.16;72.95
76166;BME280;65085;46.718;20.136;2022-12-18T08:33:11;102837.78;;;3.01;73.11
76166;BME280;65085;46.718;20.136;2022-12-18T08:36:14;102834.59;;;3.49;73.16
76166;BME280;65085;46.718;20.136;2022-12-18T08:39:18;102846.34;;;4.08;69.56
76166;BME280;65085;46.718;20.136;2022-12-18T08:42:21;102839.53;;;4.89;67.15
76166;BME280;65085;46.718;20.136;2022-12-18T08:45:42;102838.56;;;5.80;64.75
76166;BME280;65085;46.718;20.136;2022-12-18T08:48:45;102836.75;;;5.71;65.82
76166;BME280;65085;46.718;20.136;2022-12-18T08:51:47;102837.28;;;6.01;62.73
76166;BME280;65085;46.718;20.136;2022-12-18T08:54:52;102840.16;;;6.10;62.84
76166;BME280;65085;46.718;20.136;2022-12-18T08:57:54;102834.28;;;6.50;61.19
76166;BME280;65085;46.718;20.136;2022-12-18T09:00:59;102844.88;;;5.99;65.77
76166;BME280;65085;46.718;20.136;2022-12-18T09:04:02;102844.19;;;5.50;64.35
76166;BME280;65085;46.718;20.136;2022-12-18T09:07:07;102840.94;;;4.76;67.31
76166;BME280;65085;46.718;20.136;2022-12-18T09:10:11;102850.44;;;4.64;67.83
76166;BME280;65085;46.718;20.136;2022-12-18T09:13:15;102852.66;;;4.52;70.00
76166;BME280;65085;46.718;20.136;2022-12-18T09:16:19;102860.84;;;4.22;71.46
76166;BME280;65085;46.718;20.136;2022-12-18T09:19:22;102855.88;;;4.49;69.41
76166;BME280;65085;46.718;20.136;2022-12-18T09:22:25;102853.81;;;4.36;69.53
76166;BME280;65085;46.718;20.136;2022-12-18T09:25:30;102855.09;;;4.43;69.45
76166;BME280;65085;46.718;20.136;2022-12-18T09:28:38;102853.59;;;4.17;70.57
76166;BME280;65085;46.718;20.136;2022-12-18T09:31:41;102864.81;;;4.34;70.19
76166;BME280;65085;46.718;20.136;2022-12-18T09:34:44;102860.63;;;4.72;70.11
76166;BME280;65085;46.718;20.136;2022-12-18T09:37:46;102861.56;;;4.96;68.84
76166;BME280;65085;46.718;20.136;2022-12-18T09:40:52;102860.31;;;5.22;68.39
76166;BME280;65085;46.718;20.136;2022-12-18T09:43:58;102857.69;;;6.12;64.25
76166;BME280;65085;46.718;20.136;2022-12-18T09:47:10;102864.16;;;6.58;62.60
76166;BME280;65085;46.718;20.136;2022-12-18T09:50:23;102862.47;;;7.04;60.86
76166;BME280;65085;46.718;20.136;2022-12-18T09:53:31;102859.56;;;7.19;61.66
76166;BME280;65085;46.718;20.136;2022-12-18T09:56:40;102855.03;;;6.96;61.32
76166;BME280;65085;46.718;20.136;2022-12-18T09:59:46;102856.47;;;7.25;60.82
76166;BME280;65085;46.718;20.136;2022-12-18T10:02:52;102853.56;;;7.86;56.33
76166;BME280;65085;46.718;20.136;2022-12-18T10:06:02;102846.28;;;8.00;57.96
76166;BME280;65085;46.718;20.136;2022-12-18T10:09:15;102843.97;;;8.07;57.29
76166;BME280;65085;46.718;20.136;2022-12-18T10:12:27;102843.84;;;8.12;56.00
76166;BME280;65085;46.718;20.136;2022-12-18T10:15:36;102850.72;;;8.36;54.73
76166;BME280;65085;46.718;20.136;2022-12-18T10:19:00;102840.38;;;9.01;52.32
76166;BME280;65085;46.718;20.136;2022-12-18T10:22:14;102841.75;;;8.76;51.92
76166;BME280;65085;46.718;20.136;2022-12-18T10:25:23;102829.25;;;8.26;51.58
76166;BME280;65085;46.718;20.136;2022-12-18T10:28:29;102831.13;;;8.66;51.14
76166;BME280;65085;46.718;20.136;2022-12-18T10:31:32;102830.53;;;9.49;47.53
76166;BME280;65085;46.718;20.136;2022-12-18T10:34:35;102830.66;;;10.27;46.24
76166;BME280;65085;46.718;20.136;2022-12-18T10:38:05;102833.50;;;9.91;47.51
76166;BME280;65085;46.718;20.136;2022-12-18T10:41:24;102830.84;;;10.00;46.62
76166;BME280;65085;46.718;20.136;2022-12-18T10:44:32;102826.34;;;10.26;47.01
76166;BME280;65085;46.718;20.136;2022-12-18T10:47:35;102826.78;;;9.14;50.15
76166;BME280;65085;46.718;20.136;2022-12-18T10:50:37;102823.13;;;8.61;52.25
76166;BME280;65085;46.718;20.136;2022-12-18T10:54:02;102819.41;;;8.71;53.72
76166;BME280;65085;46.718;20.136;2022-12-18T10:57:15;102817.59;;;9.24;50.65
76166;BME280;65085;46.718;20.136;2022-12-18T11:00:28;102821.44;;;8.87;51.74
76166;BME280;65085;46.718;20.136;2022-12-18T11:03:34;102823.84;;;8.40;52.98
76166;BME280;65085;46.718;20.136;2022-12-18T11:06:53;102820.50;;;8.56;50.82
76166;BME280;65085;46.718;20.136;2022-12-18T11:10:00;102825.81;;;8.61;50.63
76166;BME280;65085;46.718;20.136;2022-12-18T11:13:17;102822.47;;;9.13;49.00
76166;BME280;65085;46.718;20.136;2022-12-18T11:16:22;102815.63;;;9.16;47.19
76166;BME280;65085;46.718;20.136;2022-12-18T11:19:31;102816.78;;;9.67;46.44
76166;BME280;65085;46.718;20.136;2022-12-18T11:22:36;102810.72;;;10.01;45.53
76166;BME280;65085;46.718;20.136;2022-12-18T11:25:51;102811.88;;;10.56;43.55
76166;BME280;65085;46.718;20.136;2022-12-18T11:29:08;102827.28;;;11.19;42.43
76166;BME280;65085;46.718;20.136;2022-12-18T11:32:27;102830.00;;;11.19;41.89
76166;BME280;65085;46.718;20.136;2022-12-18T11:35:43;102832.75;;;11.02;42.91
76166;BME280;65085;46.718;20.136;2022-12-18T11:38:51;102831.66;;;9.48;45.55
76166;BME280;65085;46.718;20.136;2022-12-18T11:41:58;102838.28;;;10.16;45.83
76166;BME280;65085;46.718;20.136;2022-12-18T11:45:26;102846.72;;;10.45;43.74
76166;BME280;65085;46.718;20.136;2022-12-18T11:48:34;102840.47;;;10.45;42.99
76166;BME280;65085;46.718;20.136;2022-12-18T11:51:43;102840.56;;;11.12;41.66
76166;BME280;65085;46.718;20.136;2022-12-18T11:54:51;102841.66;;;11.54;40.72
76166;BME280;65085;46.718;20.136;2022-12-18T11:57:59;102838.75;;;11.76;40.08
76166;BME280;65085;46.718;20.136;2022-12-18T12:01:13;102839.28;;;12.07;39.02
76166;BME280;65085;46.718;20.136;2022-12-18T12:04:37;102846.81;;;11.13;40.60
76166;BME280;65085;46.718;20.136;2022-12-18T12:07:46;102840.03;;;11.70;40.90
76166;BME280;65085;46.718;20.136;2022-12-18T12:10:58;102836.38;;;11.40;41.50
76166;BME280;65085;46.718;20.136;2022-12-18T12:14:37;102840.19;;;11.73;40.93
76166;BME280;65085;46.718;20.136;2022-12-18T12:17:49;102829.03;;;11.66;40.95
76166;BME280;65085;46.718;20.136;2022-12-18T12:21:03;102822.50;;;12.63;39.06
76166;BME280;65085;46.718;20.136;2022-12-18T12:24:21;102829.69;;;12.96;38.08
76166;BME280;65085;46.718;20.136;2022-12-18T12:27:33;102826.78;;;12.72;37.93
76166;BME280;65085;46.718;20.136;2022-12-18T12:30:49;102824.69;;;10.72;41.89
76166;BME280;65085;46.718;20.136;2022-12-18T12:34:00;102816.09;;;9.92;46.12
76166;BME280;65085;46.718;20.136;2022-12-18T12:37:20;102803.47;;;9.88;44.52
76166;BME280;65085;46.718;20.136;2022-12-18T12:40:28;102809.72;;;9.36;46.69
76166;BME280;65085;46.718;20.136;2022-12-18T12:43:52;102813.34;;;8.74;49.14
76166;BME280;65085;46.718;20.136;2022-12-18T12:47:01;102815.53;;;8.85;48.42
76166;BME280;65085;46.718;20.136;2022-12-18T12:50:13;102820.53;;;8.92;47.94
76166;BME280;65085;46.718;20.136;2022-12-18T12:53:26;102827.44;;;8.62;49.08
76166;BME280;65085;46.718;20.136;2022-12-18T12:56:38;102826.53;;;8.53;48.55
76166;BME280;65085;46.718;20.136;2022-12-18T12:59:49;102836.97;;;8.46;49.74
76166;BME280;65085;46.718;20.136;2022-12-18T13:02:59;102843.00;;;8.57;49.07
76166;BME280;65085;46.718;20.136;2022-12-18T13:06:11;102840.00;;;8.31;52.58
76166;BME280;65085;46.718;20.136;2022-12-18T13:09:17;102835.59;;;8.35;50.81
76166;BME280;65085;46.718;20.136;2022-12-18T13:12:20;102837.00;;;8.33;51.39
76166;BME280;65085;46.718;20.136;2022-12-18T13:15:43;102856.09;;;8.09;52.19
76166;BME280;65085;46.718;20.136;2022-12-18T13:18:49;102854.56;;;7.90;53.10
76166;BME280;65085;46.718;20.136;2022-12-18T13:21:54;102857.13;;;7.68;52.75
76166;BME280;65085;46.718;20.136;2022-12-18T13:24:59;102859.47;;;7.56;54.90
76166;BME280;65085;46.718;20.136;2022-12-18T13:28:06;102861.50;;;6.77;56.86
76166;BME280;65085;46.718;20.136;2022-12-18T13:31:08;102858.19;;;6.61;56.73
76166;BME280;65085;46.718;20.136;2022-12-18T13:34:16;102859.44;;;6.69;58.25
76166;BME280;65085;46.718;20.136;2022-12-18T13:37:42;102867.28;;;7.07;56.00
76166;BME280;65085;46.718;20.136;2022-12-18T13:40:57;102878.09;;;7.07;55.04
76166;BME280;65085;46.718;20.136;2022-12-18T13:44:11;102880.50;;;6.67;58.56
76166;BME280;65085;46.718;20.136;2022-12-18T13:47:26;102874.19;;;6.76;57.64
76166;BME280;65085;46.718;20.136;2022-12-18T13:50:30;102878.84;;;6.71;58.19
76166;BME280;65085;46.718;20.136;2022-12-18T13:53:42;102884.63;;;6.41;59.32
76166;BME280;65085;46.718;20.136;2022-12-18T13:56:48;102887.59;;;6.16;59.91
76166;BME280;65085;46.718;20.136;2022-12-18T13:59:52;102894.31;;;6.18;59.14
76166;BME280;65085;46.718;20.136;2022-12-18T14:02:55;102896.97;;;5.95;60.31
76166;BME280;65085;46.718;20.136;2022-12-18T14:06:01;102900.06;;;5.45;61.05
76166;BME280;65085;46.718;20.136;2022-12-18T14:09:04;102912.44;;;5.07;63.23
76166;BME280;65085;46.718;20.136;2022-12-18T14:12:18;102908.88;;;4.58;64.44
76166;BME280;65085;46.718;20.136;2022-12-18T14:15:44;102913.56;;;4.23;65.86
76166;BME280;65085;46.718;20.136;2022-12-18T14:18:54;102920.03;;;4.02;67.29
76166;BME280;65085;46.718;20.136;2022-12-18T14:22:04;102919.50;;;3.90;66.90
76166;BME280;65085;46.718;20.136;2022-12-18T14:25:18;102922.75;;;3.72;67.81
76166;BME280;65085;46.718;20.136;2022-12-18T14:28:23;102928.94;;;3.67;68.26
76166;BME280;65085;46.718;20.136;2022-12-18T14:31:28;102929.44;;;3.49;68.52
76166;BME280;65085;46.718;20.136;2022-12-18T14:34:31;102932.09;;;3.30;69.14
76166;BME280;65085;46.718;20.136;2022-12-18T14:37:34;102936.03;;;2.92;70.91
76166;BME280;65085;46.718;20.136;2022-12-18T14:40:36;102937.56;;;2.78;71.54
76166;BME280;65085;46.718;20.136;2022-12-18T14:43:42;102933.75;;;2.64;71.57
76166;BME280;65085;46.718;20.136;2022-12-18T14:46:46;102926.72;;;2.53;71.51
76166;BME280;65085;46.718;20.136;2022-12-18T14:49:50;102941.28;;;2.72;70.62
76166;BME280;65085;46.718;20.136;2022-12-18T14:52:52;102940.13;;;2.53;72.07
76166;BME280;65085;46.718;20.136;2022-12-18T14:55:55;102941.06;;;2.32;73.12
76166;BME280;65085;46.718;20.136;2022-12-18T14:59:01;102952.00;;;2.21;73.97
76166;BME280;65085;46.718;20.136;2022-12-18T15:02:13;102950.78;;;2.02;75.00
76166;BME280;65085;46.718;20.136;2022-12-18T15:05:21;102954.72;;;1.89;74.98
76166;BME280;65085;46.718;20.136;2022-12-18T15:08:35;102950.47;;;1.67;76.23
76166;BME280;65085;46.718;20.136;2022-12-18T15:11:45;102949.34;;;1.58;77.20
76166;BME280;65085;46.718;20.136;2022-12-18T15:14:49;102956.13;;;1.39;78.83
76166;BME280;65085;46.718;20.136;2022-12-18T15:18:02;102956.19;;;1.22;79.33
76166;BME280;65085;46.718;20.136;2022-12-18T15:21:08;102954.78;;;1.15;79.04
76166;BME280;65085;46.718;20.136;2022-12-18T15:24:17;102957.66;;;1.08;79.19
76166;BME280;65085;46.718;20.136;2022-12-18T15:27:23;102956.03;;;1.07;80.20
76166;BME280;65085;46.718;20.136;2022-12-18T15:30:28;102966.44;;;1.04;80.50
76166;BME280;65085;46.718;20.136;2022-12-18T15:33:33;102964.13;;;0.91;80.48
76166;BME280;65085;46.718;20.136;2022-12-18T15:36:36;102979.56;;;0.84;80.88
76166;BME280;65085;46.718;20.136;2022-12-18T15:39:39;102982.75;;;0.81;80.79
76166;BME280;65085;46.718;20.136;2022-12-18T15:42:42;102985.03;;;0.72;81.80
76166;BME280;65085;46.718;20.136;2022-12-18T15:46:08;102992.28;;;0.55;82.69
76166;BME280;65085;46.718;20.136;2022-12-18T15:49:30;102995.63;;;0.46;82.74
76166;BME280;65085;46.718;20.136;2022-12-18T15:52:39;103003.16;;;0.32;82.91
76166;BME280;65085;46.718;20.136;2022-12-18T15:55:43;103004.41;;;0.25;82.78
76166;BME280;65085;46.718;20.136;2022-12-18T15:59:10;103006.50;;;0.06;83.54
76166;BME280;65085;46.718;20.136;2022-12-18T16:02:17;102999.13;;;-0.03;84.16
76166;BME280;65085;46.718;20.136;2022-12-18T16:05:24;103010.53;;;-0.08;84.25
76166;BME280;65085;46.718;20.136;2022-12-18T16:08:29;103011.81;;;-0.10;85.38
76166;BME280;65085;46.718;20.136;2022-12-18T16:11:34;103012.22;;;-0.18;85.04
76166;BME280;65085;46.718;20.136;2022-12-18T16:14:41;103017.09;;;-0.15;84.99
76166;BME280;65085;46.718;20.136;2022-12-18T16:17:46;103031.97;;;-0.19;85.51